Time;durP1;ratioP1;P1;durP2;ratioP2;P2;SDS_P1;SDS_P2;PMS_P1;PMS_P2;Temp;Humidity;BMP_temperature;BMP_pressure;BME280_temperature;BME280_humidity;BME280_pressure;Samples;Min_cycle;Max_cycle;Signal;HPM_P1;HPM_P2
2022/11/14 00:00:46;;;;;;;;;;;10.90;99.90;;;;;;5097236;28;19957;-76
2022/11/14 00:03:11;;;;;;;;;;;10.80;99.90;;;;;;5097665;28;20270;-76
2022/11/14 00:05:38;;;;;;;;;;;10.80;99.90;;;;;;5097083;28;19912;-76
2022/11/14 00:08:04;;;;;;;;;;;10.80;99.90;;;;;;5097077;28;19915;-76
2022/11/14 00:10:30;;;;;;;;;;;10.80;99.90;;;;;;5097015;28;19908;-76
2022/11/14 00:12:55;;;;;;;;;;;10.80;99.90;;;;;;5096982;28;19961;-75
2022/11/14 00:15:21;;;;;;;;;;;10.70;99.90;;;;;;5097507;28;19908;-75
2022/11/14 00:17:46;;;;;;;;;;;10.70;99.90;;;;;;5097241;28;19908;-76
2022/11/14 00:20:12;;;;;;;;;;;10.80;99.90;;;;;;5078723;28;19908;-76
2022/11/14 00:22:38;;;;;;;;;;;10.90;99.90;;;;;;5096805;28;20042;-76
2022/11/14 00:25:07;;;;;;;;;;;10.90;99.90;;;;;;5096973;28;20259;-75
2022/11/14 00:27:32;;;;;;;;;;;10.90;99.90;;;;;;5096685;28;20340;-75
2022/11/14 00:29:58;;;;;;;;;;;11.00;99.90;;;;;;5096971;28;19919;-75
2022/11/14 00:32:23;;;;;;;;;;;10.90;99.90;;;;;;5096671;28;19908;-76
2022/11/14 00:34:49;;;;;;;;;;;11.00;99.90;;;;;;5096563;28;19908;-75
2022/11/14 00:37:14;;;;;;;;;;;11.00;99.90;;;;;;5096541;28;19908;-76
2022/11/14 00:39:40;;;;;;;;;;;10.90;99.90;;;;;;5096815;28;19921;-74
2022/11/14 00:42:05;;;;;;;;;;;10.90;99.90;;;;;;5096417;28;19912;-75
2022/11/14 00:44:31;;;;;;;;;;;10.90;99.90;;;;;;5097062;28;19934;-75
2022/11/14 00:46:56;;;;;;;;;;;10.90;99.90;;;;;;5096396;28;19923;-75
2022/11/14 00:49:22;;;;;;;;;;;10.90;99.90;;;;;;5096327;28;20381;-75
2022/11/14 00:51:47;;;;;;;;;;;10.80;99.90;;;;;;5077894;28;19923;-75
2022/11/14 00:54:13;;;;;;;;;;;10.80;99.90;;;;;;5096221;28;19909;-75
2022/11/14 00:56:38;;;;;;;;;;;10.80;99.90;;;;;;5096455;28;20304;-75
2022/11/14 00:59:04;;;;;;;;;;;10.80;99.90;;;;;;5096062;28;19908;-75
2022/11/14 01:01:29;;;;;;;;;;;10.80;99.90;;;;;;5096058;28;19908;-75
2022/11/14 01:03:55;;;;;;;;;;;10.80;99.90;;;;;;5077797;28;19912;-75
2022/11/14 01:06:20;;;;;;;;;;;10.70;99.90;;;;;;5095982;28;19973;-75
2022/11/14 01:08:46;;;;;;;;;;;10.70;99.90;;;;;;5096541;28;20415;-74
2022/11/14 01:11:18;;;;;;;;;;;10.60;99.90;;;;;;5096213;28;19954;-76
2022/11/14 01:13:44;;;;;;;;;;;10.50;99.90;;;;;;5095842;28;19908;-76
2022/11/14 01:16:10;;;;;;;;;;;10.60;99.90;;;;;;5095821;28;19951;-76
2022/11/14 01:18:36;;;;;;;;;;;10.60;99.90;;;;;;5095726;28;19966;-76
2022/11/14 01:21:06;;;;;;;;;;;10.60;99.90;;;;;;5095984;28;20377;-75
2022/11/14 01:23:31;;;;;;;;;;;10.60;99.90;;;;;;5095580;28;19919;-75
2022/11/14 01:26:04;;;;;;;;;;;10.50;99.90;;;;;;5096218;28;20010;-75
2022/11/14 01:28:30;;;;;;;;;;;10.50;99.90;;;;;;5095538;28;19908;-75
2022/11/14 01:30:55;;;;;;;;;;;10.50;99.90;;;;;;5095509;28;20362;-75
2022/11/14 01:33:21;;;;;;;;;;;10.40;99.90;;;;;;5095693;28;19947;-75
2022/11/14 01:35:46;;;;;;;;;;;10.30;99.90;;;;;;5095460;28;20061;-75
2022/11/14 01:38:13;;;;;;;;;;;10.30;99.90;;;;;;5095373;28;19908;-76
2022/11/14 01:40:43;;;;;;;;;;;10.30;99.90;;;;;;5095557;28;19915;-76
2022/11/14 01:43:18;;;;;;;;;;;10.40;99.90;;;;;;5095135;28;19908;-75
2022/11/14 01:45:46;;;;;;;;;;;10.40;99.90;;;;;;5095230;28;19919;-76
2022/11/14 01:48:19;;;;;;;;;;;10.40;99.90;;;;;;5076922;28;19916;-76
2022/11/14 01:50:53;;;;;;;;;;;10.40;99.90;;;;;;5095449;28;19914;-75
2022/11/14 01:53:18;;;;;;;;;;;10.40;99.90;;;;;;5095374;28;19934;-75
2022/11/14 01:55:44;;;;;;;;;;;10.40;99.90;;;;;;5095331;28;20370;-75
2022/11/14 01:58:10;;;;;;;;;;;10.40;99.90;;;;;;5094937;28;20377;-76
2022/11/14 02:00:36;;;;;;;;;;;10.30;99.90;;;;;;5094929;28;19908;-76
2022/11/14 02:03:02;;;;;;;;;;;10.30;99.90;;;;;;5095438;28;20346;-76
2022/11/14 02:05:28;;;;;;;;;;;10.30;99.90;;;;;;5094769;28;20289;-76
2022/11/14 02:07:53;;;;;;;;;;;10.30;99.90;;;;;;5094764;28;19908;-76
2022/11/14 02:10:20;;;;;;;;;;;10.30;99.90;;;;;;5095330;28;19970;-76
2022/11/14 02:12:45;;;;;;;;;;;10.30;99.90;;;;;;5094675;28;20063;-76
2022/11/14 02:15:12;;;;;;;;;;;10.30;99.90;;;;;;5095200;28;20021;-75
2022/11/14 02:17:37;;;;;;;;;;;10.20;99.90;;;;;;5094590;28;20372;-76
2022/11/14 02:20:13;;;;;;;;;;;10.20;99.90;;;;;;5094578;28;19915;-75
2022/11/14 02:22:40;;;;;;;;;;;10.10;99.90;;;;;;5095152;28;19915;-75
2022/11/14 02:25:06;;;;;;;;;;;10.10;99.90;;;;;;5094425;28;19918;-75
2022/11/14 02:27:32;;;;;;;;;;;10.10;99.90;;;;;;5094401;28;20311;-75
2022/11/14 02:30:27;;;;;;;;;;;10.00;99.90;;;;;;5094963;28;19927;-76
2022/11/14 02:32:53;;;;;;;;;;;10.10;99.90;;;;;;5054867;28;20342;-75
2022/11/14 02:35:18;;;;;;;;;;;10.10;99.90;;;;;;5094300;28;19990;-75
2022/11/14 02:37:44;;;;;;;;;;;10.10;99.90;;;;;;5094287;28;19909;-75
2022/11/14 02:40:09;;;;;;;;;;;9.90;99.90;;;;;;5094264;28;20006;-76
2022/11/14 02:42:35;;;;;;;;;;;9.80;99.90;;;;;;5094176;28;19908;-76
2022/11/14 02:45:01;;;;;;;;;;;9.90;99.90;;;;;;5094916;28;19912;-75
2022/11/14 02:47:26;;;;;;;;;;;10.00;99.90;;;;;;5094097;28;19908;-76
2022/11/14 02:49:52;;;;;;;;;;;10.00;99.90;;;;;;5094354;28;19908;-76
2022/11/14 02:52:17;;;;;;;;;;;10.00;99.90;;;;;;5093922;28;20010;-76
2022/11/14 02:54:43;;;;;;;;;;;10.00;99.90;;;;;;5094035;28;19908;-76
2022/11/14 02:57:08;;;;;;;;;;;10.00;99.90;;;;;;5094020;28;19908;-76
2022/11/14 02:59:34;;;;;;;;;;;9.90;99.90;;;;;;5093311;28;19908;-75
2022/11/14 03:01:59;;;;;;;;;;;9.90;99.90;;;;;;5093906;28;20273;-76
2022/11/14 03:04:25;;;;;;;;;;;9.90;99.90;;;;;;5093801;28;20358;-75
2022/11/14 03:06:50;;;;;;;;;;;9.90;99.90;;;;;;5093827;28;19994;-76
2022/11/14 03:09:17;;;;;;;;;;;9.90;99.90;;;;;;5094116;28;20286;-75
2022/11/14 03:11:42;;;;;;;;;;;9.80;99.90;;;;;;5093765;28;19915;-76
2022/11/14 03:14:08;;;;;;;;;;;9.80;99.90;;;;;;5094276;28;19995;-75
2022/11/14 03:16:33;;;;;;;;;;;9.80;99.90;;;;;;5093989;28;19909;-76
2022/11/14 03:18:59;;;;;;;;;;;9.70;99.90;;;;;;5093972;28;19966;-75
2022/11/14 03:21:24;;;;;;;;;;;9.70;99.90;;;;;;5093651;28;19962;-75
2022/11/14 03:23:50;;;;;;;;;;;9.70;99.90;;;;;;5093584;28;19927;-76
2022/11/14 03:26:15;;;;;;;;;;;9.70;99.90;;;;;;5093663;28;19908;-75
2022/11/14 03:28:41;;;;;;;;;;;9.70;99.90;;;;;;5094170;28;19908;-76
2022/11/14 03:31:07;;;;;;;;;;;9.60;99.90;;;;;;5093601;28;19908;-76
2022/11/14 03:33:33;;;;;;;;;;;9.60;99.90;;;;;;5093854;28;19955;-76
2022/11/14 03:35:59;;;;;;;;;;;9.50;99.90;;;;;;5093534;28;19908;-75
2022/11/14 03:38:24;;;;;;;;;;;9.40;99.90;;;;;;5093504;28;20289;-75
2022/11/14 03:40:50;;;;;;;;;;;9.20;99.90;;;;;;5093500;28;19908;-75
2022/11/14 03:43:16;;;;;;;;;;;9.20;99.90;;;;;;5093893;28;19908;-75
2022/11/14 03:45:41;;;;;;;;;;;9.20;99.90;;;;;;5093981;28;20369;-76
2022/11/14 03:48:07;;;;;;;;;;;9.40;99.90;;;;;;5075325;28;20433;-76
2022/11/14 03:50:32;;;;;;;;;;;9.40;99.90;;;;;;5093660;28;19997;-76
2022/11/14 03:52:58;;;;;;;;;;;9.40;99.90;;;;;;5093199;28;19924;-75
2022/11/14 03:55:23;;;;;;;;;;;9.50;99.90;;;;;;5093637;28;19930;-75
2022/11/14 03:57:49;;;;;;;;;;;9.50;99.90;;;;;;5093312;28;20289;-76
2022/11/14 04:00:15;;;;;;;;;;;9.60;99.90;;;;;;5093324;28;20354;-76
2022/11/14 04:02:40;;;;;;;;;;;9.60;99.90;;;;;;5093557;28;19908;-76
2022/11/14 04:05:06;;;;;;;;;;;9.60;99.90;;;;;;5093483;28;20334;-76
2022/11/14 04:07:32;;;;;;;;;;;9.60;99.90;;;;;;5093228;28;19947;-75
2022/11/14 04:09:57;;;;;;;;;;;9.60;99.90;;;;;;5095129;28;19919;-76
2022/11/14 04:12:23;;;;;;;;;;;9.60;99.90;;;;;;5078880;28;19912;-75
2022/11/14 04:14:48;;;;;;;;;;;9.70;99.90;;;;;;5078826;28;20010;-76
2022/11/14 04:17:14;;;;;;;;;;;9.60;99.90;;;;;;5096914;28;19909;-76
2022/11/14 04:19:39;;;;;;;;;;;9.60;99.90;;;;;;5097167;28;19947;-75
2022/11/14 04:22:05;;;;;;;;;;;9.50;99.90;;;;;;5096842;28;20297;-76
2022/11/14 04:24:31;;;;;;;;;;;9.40;99.90;;;;;;5096681;28;19912;-76
2022/11/14 04:26:56;;;;;;;;;;;9.50;99.90;;;;;;5097350;28;19915;-76
2022/11/14 04:29:22;;;;;;;;;;;9.50;99.90;;;;;;5096861;28;19947;-76
2022/11/14 04:31:47;;;;;;;;;;;9.50;99.90;;;;;;5096953;28;19912;-74
2022/11/14 04:34:13;;;;;;;;;;;9.50;99.90;;;;;;5096607;28;20375;-76
2022/11/14 04:36:38;;;;;;;;;;;9.50;99.90;;;;;;5096528;28;20387;-75
2022/11/14 04:39:04;;;;;;;;;;;9.50;99.90;;;;;;5078454;28;19915;-76
2022/11/14 04:41:29;;;;;;;;;;;9.50;99.90;;;;;;5096479;28;19915;-76
2022/11/14 04:43:55;;;;;;;;;;;9.40;99.90;;;;;;5096859;28;20243;-75
2022/11/14 04:46:21;;;;;;;;;;;9.30;99.90;;;;;;5096952;28;19908;-75
2022/11/14 04:48:46;;;;;;;;;;;9.20;99.90;;;;;;5096402;28;19909;-76
2022/11/14 04:51:12;;;;;;;;;;;9.30;99.90;;;;;;5077943;28;20380;-75
2022/11/14 04:53:37;;;;;;;;;;;9.20;99.90;;;;;;5096568;28;19919;-75
2022/11/14 04:56:03;;;;;;;;;;;9.20;99.90;;;;;;5096220;28;20309;-75
2022/11/14 04:58:29;;;;;;;;;;;9.20;99.90;;;;;;5096732;28;19908;-76
2022/11/14 05:00:56;;;;;;;;;;;9.10;99.90;;;;;;5096073;28;19908;-76
2022/11/14 05:03:22;;;;;;;;;;;9.10;99.90;;;;;;5096016;28;19908;-75
2022/11/14 05:05:48;;;;;;;;;;;9.20;99.90;;;;;;5095993;28;20027;-75
2022/11/14 05:08:13;;;;;;;;;;;9.20;99.90;;;;;;5095949;28;19908;-75
2022/11/14 05:10:41;;;;;;;;;;;9.20;99.90;;;;;;5096224;28;19908;-76
2022/11/14 05:13:07;;;;;;;;;;;9.30;99.90;;;;;;5095848;28;20416;-76
2022/11/14 05:15:32;;;;;;;;;;;9.30;99.90;;;;;;5096084;28;19909;-76
2022/11/14 05:17:58;;;;;;;;;;;9.30;99.90;;;;;;5095792;28;19919;-76
2022/11/14 05:20:23;;;;;;;;;;;9.20;99.90;;;;;;5095358;28;19908;-75
2022/11/14 05:22:52;;;;;;;;;;;9.10;99.90;;;;;;5095745;28;20358;-76
2022/11/14 05:25:17;;;;;;;;;;;9.20;99.90;;;;;;5095909;28;19912;-75
2022/11/14 05:27:42;;;;;;;;;;;9.40;99.90;;;;;;5095598;28;20003;-75
2022/11/14 05:30:08;;;;;;;;;;;9.50;99.90;;;;;;5095803;28;20327;-75
2022/11/14 05:32:34;;;;;;;;;;;9.50;99.90;;;;;;5095476;28;19908;-74
2022/11/14 05:34:59;;;;;;;;;;;9.40;99.90;;;;;;5095461;28;19908;-76
2022/11/14 05:37:25;;;;;;;;;;;9.40;99.90;;;;;;5095677;28;20281;-76
2022/11/14 05:39:50;;;;;;;;;;;9.60;99.90;;;;;;5077242;28;19953;-75
2022/11/14 05:42:16;;;;;;;;;;;9.70;99.90;;;;;;5095385;28;19912;-76
2022/11/14 05:44:41;;;;;;;;;;;9.50;99.90;;;;;;5095142;28;20009;-76
2022/11/14 05:47:07;;;;;;;;;;;9.50;99.90;;;;;;5095717;28;19926;-75
2022/11/14 05:49:32;;;;;;;;;;;9.70;99.90;;;;;;5095184;28;19908;-76
2022/11/14 05:51:58;;;;;;;;;;;9.70;99.90;;;;;;5095025;28;19924;-75
2022/11/14 05:54:23;;;;;;;;;;;9.70;99.90;;;;;;5095066;28;19915;-76
2022/11/14 05:56:49;;;;;;;;;;;9.60;99.90;;;;;;5095013;28;19915;-75
2022/11/14 05:59:14;;;;;;;;;;;9.60;99.90;;;;;;5095270;28;20350;-76
2022/11/14 06:01:40;;;;;;;;;;;9.50;99.90;;;;;;5094931;28;19908;-75
2022/11/14 06:04:05;;;;;;;;;;;9.50;99.90;;;;;;5094832;28;19912;-75
2022/11/14 06:06:31;;;;;;;;;;;9.50;99.90;;;;;;5094830;28;19908;-75
2022/11/14 06:08:56;;;;;;;;;;;9.40;99.90;;;;;;5076653;28;20281;-76
2022/11/14 06:11:22;;;;;;;;;;;9.60;99.90;;;;;;5094766;28;19913;-75
2022/11/14 06:13:47;;;;;;;;;;;9.50;99.90;;;;;;5094711;28;19912;-75
2022/11/14 06:16:14;;;;;;;;;;;9.40;99.90;;;;;;5094937;28;19941;-75
2022/11/14 06:18:40;;;;;;;;;;;9.40;99.90;;;;;;5094918;28;20389;-75
2022/11/14 06:21:07;;;;;;;;;;;9.40;99.90;;;;;;5094887;28;19909;-75
2022/11/14 06:23:32;;;;;;;;;;;9.50;99.90;;;;;;5094455;28;19915;-75
2022/11/14 06:26:02;;;;;;;;;;;9.60;99.90;;;;;;5094536;28;19990;-75
2022/11/14 06:28:27;;;;;;;;;;;9.60;99.90;;;;;;5094479;28;19908;-75
2022/11/14 06:30:57;;;;;;;;;;;9.60;99.90;;;;;;5094457;28;20338;-76
2022/11/14 06:33:23;;;;;;;;;;;9.70;99.90;;;;;;5094251;28;19908;-75
2022/11/14 06:35:48;;;;;;;;;;;9.80;99.90;;;;;;5094378;28;19958;-75
2022/11/14 06:38:14;;;;;;;;;;;9.90;99.90;;;;;;5094332;28;20293;-75
2022/11/14 06:40:39;;;;;;;;;;;9.90;99.90;;;;;;5094183;28;19908;-76
2022/11/14 06:43:05;;;;;;;;;;;9.90;99.90;;;;;;5094306;28;20007;-76
2022/11/14 06:45:30;;;;;;;;;;;10.00;99.90;;;;;;5076458;28;19993;-76
2022/11/14 06:47:59;;;;;;;;;;;10.10;99.90;;;;;;5094136;28;19915;-76
2022/11/14 06:50:25;;;;;;;;;;;10.10;99.90;;;;;;5094088;28;19908;-77
2022/11/14 06:52:50;;;;;;;;;;;10.10;99.90;;;;;;5093639;28;19934;-76
2022/11/14 06:55:16;;;;;;;;;;;10.00;99.90;;;;;;5094017;28;19908;-76
2022/11/14 06:57:41;;;;;;;;;;;10.10;99.90;;;;;;5093992;28;20262;-76
2022/11/14 07:00:07;;;;;;;;;;;10.10;99.90;;;;;;5094248;28;19912;-76
2022/11/14 07:02:32;;;;;;;;;;;10.10;99.90;;;;;;5094200;28;20391;-75
2022/11/14 07:04:58;;;;;;;;;;;10.20;99.90;;;;;;5094351;28;19990;-76
2022/11/14 07:07:23;;;;;;;;;;;10.30;99.90;;;;;;5093858;28;19954;-75
2022/11/14 07:09:49;;;;;;;;;;;10.20;99.90;;;;;;5094087;28;19938;-75
2022/11/14 07:12:14;;;;;;;;;;;10.20;99.90;;;;;;5093777;28;20259;-76
2022/11/14 07:14:40;;;;;;;;;;;10.30;99.90;;;;;;5075634;28;19909;-76
2022/11/14 07:17:05;;;;;;;;;;;10.40;99.90;;;;;;5094045;28;19908;-76
2022/11/14 07:19:31;;;;;;;;;;;10.50;99.90;;;;;;5093685;28;19998;-76
2022/11/14 07:21:56;;;;;;;;;;;10.60;99.90;;;;;;5093959;28;19915;-76
2022/11/14 07:24:22;;;;;;;;;;;10.70;99.90;;;;;;5075509;28;19959;-75
2022/11/14 07:26:47;;;;;;;;;;;10.70;99.90;;;;;;5075456;28;19919;-76
2022/11/14 07:29:13;;;;;;;;;;;10.80;99.90;;;;;;5093598;28;19915;-75
2022/11/14 07:31:39;;;;;;;;;;;10.80;99.90;;;;;;5093645;28;19912;-76
2022/11/14 07:34:05;;;;;;;;;;;10.80;99.90;;;;;;5093846;28;19908;-76
2022/11/14 07:36:30;;;;;;;;;;;10.80;99.90;;;;;;5093563;28;20323;-75
2022/11/14 07:38:56;;;;;;;;;;;10.80;99.90;;;;;;5093521;28;19908;-76
2022/11/14 07:41:21;;;;;;;;;;;10.90;99.90;;;;;;5093775;28;19953;-76
2022/11/14 07:43:47;;;;;;;;;;;10.90;99.90;;;;;;5093314;28;19912;-75
2022/11/14 07:46:14;;;;;;;;;;;10.90;99.90;;;;;;5098389;28;19910;-76
2022/11/14 07:48:40;;;;;;;;;;;11.00;99.90;;;;;;5097500;28;19947;-75
2022/11/14 07:51:06;;;;;;;;;;;11.00;99.90;;;;;;5079104;28;19989;-76
2022/11/14 07:53:35;;;;;;;;;;;11.10;99.90;;;;;;5089010;28;19934;-84
2022/11/14 07:56:02;;;;;;;;;;;11.10;99.90;;;;;;5079355;28;19961;-86
2022/11/14 07:58:28;;;;;;;;;;;11.10;99.90;;;;;;5093220;28;20019;-86
2022/11/14 08:00:53;;;;;;;;;;;11.10;99.90;;;;;;5064005;28;19948;-86
2022/11/14 08:03:19;;;;;;;;;;;11.20;99.90;;;;;;5079894;28;19962;-83
2022/11/14 08:05:44;;;;;;;;;;;11.20;99.90;;;;;;5068647;28;19970;-82
2022/11/14 08:08:10;;;;;;;;;;;11.20;99.90;;;;;;5068574;28;19920;-81
2022/11/14 08:10:36;;;;;;;;;;;11.20;99.90;;;;;;5072777;28;19913;-86
2022/11/14 08:13:03;;;;;;;;;;;11.30;99.90;;;;;;5076661;28;19912;-82
2022/11/14 08:15:28;;;;;;;;;;;11.30;99.90;;;;;;5078427;28;19918;-83
2022/11/14 08:17:57;;;;;;;;;;;11.30;99.90;;;;;;5081970;28;19912;-84
2022/11/14 08:20:23;;;;;;;;;;;11.30;99.90;;;;;;5077096;28;19916;-84
2022/11/14 08:22:49;;;;;;;;;;;11.30;99.90;;;;;;5059994;28;19946;-84
2022/11/14 08:25:14;;;;;;;;;;;11.40;99.90;;;;;;5086361;28;20453;-84
2022/11/14 08:27:40;;;;;;;;;;;11.50;99.90;;;;;;5076622;28;19908;-85
2022/11/14 08:30:06;;;;;;;;;;;11.60;99.90;;;;;;5076552;28;19954;-74
2022/11/14 08:32:31;;;;;;;;;;;11.60;99.90;;;;;;5077218;28;19924;-74
2022/11/14 08:34:57;;;;;;;;;;;11.70;99.90;;;;;;5065046;28;19912;-75
2022/11/14 08:37:22;;;;;;;;;;;11.70;99.90;;;;;;5095128;28;19912;-75
2022/11/14 08:39:48;;;;;;;;;;;11.80;99.90;;;;;;5096988;28;19919;-75
2022/11/14 08:42:13;;;;;;;;;;;11.80;99.90;;;;;;5096516;28;19908;-74
2022/11/14 08:44:39;;;;;;;;;;;11.90;99.90;;;;;;5096294;28;20301;-75
2022/11/14 08:47:04;;;;;;;;;;;11.90;99.90;;;;;;5096951;28;19912;-75
2022/11/14 08:49:30;;;;;;;;;;;11.90;99.90;;;;;;5096657;28;19943;-75
2022/11/14 08:51:55;;;;;;;;;;;11.80;99.90;;;;;;5096127;28;20411;-74
2022/11/14 08:54:21;;;;;;;;;;;11.80;99.90;;;;;;5096850;28;20003;-75
2022/11/14 08:56:46;;;;;;;;;;;11.80;99.90;;;;;;5094901;28;20374;-75
2022/11/14 08:59:12;;;;;;;;;;;11.80;99.90;;;;;;5096159;28;19908;-75
2022/11/14 09:01:37;;;;;;;;;;;11.90;99.90;;;;;;5096157;28;20013;-75
2022/11/14 09:04:03;;;;;;;;;;;11.90;99.90;;;;;;5096562;28;20366;-76
2022/11/14 09:06:29;;;;;;;;;;;11.90;99.90;;;;;;5096024;28;20339;-75
2022/11/14 09:08:54;;;;;;;;;;;11.90;99.90;;;;;;5095979;28;19908;-75
2022/11/14 09:11:20;;;;;;;;;;;11.90;99.90;;;;;;5095938;28;19994;-76
2022/11/14 09:13:45;;;;;;;;;;;11.90;99.90;;;;;;5096184;28;19951;-75
2022/11/14 09:16:11;;;;;;;;;;;12.00;99.90;;;;;;5095820;28;19991;-75
2022/11/14 09:18:36;;;;;;;;;;;12.00;99.90;;;;;;5095844;28;19953;-76
2022/11/14 09:21:03;;;;;;;;;;;12.10;99.90;;;;;;5095795;28;19915;-75
2022/11/14 09:23:29;;;;;;;;;;;12.10;99.90;;;;;;5096172;28;20308;-75
2022/11/14 09:25:55;;;;;;;;;;;12.20;99.90;;;;;;5095550;28;19908;-76
2022/11/14 09:28:22;;;;;;;;;;;12.20;99.90;;;;;;5095601;28;20378;-75
2022/11/14 09:30:47;;;;;;;;;;;12.20;99.90;;;;;;5095568;28;20267;-75
2022/11/14 09:33:13;;;;;;;;;;;12.30;99.90;;;;;;5095807;28;19908;-75
2022/11/14 09:35:39;;;;;;;;;;;12.40;99.90;;;;;;5095462;28;19913;-75
2022/11/14 09:38:05;;;;;;;;;;;12.40;99.90;;;;;;5095418;28;19908;-75
2022/11/14 09:40:46;;;;;;;;;;;12.40;99.90;;;;;;5095608;28;19908;-75
2022/11/14 09:43:30;;;;;;;;;;;12.50;99.90;;;;;;5095237;28;20007;-75
2022/11/14 09:45:56;;;;;;;;;;;12.60;99.90;;;;;;5095802;28;19919;-75
2022/11/14 09:48:26;;;;;;;;;;;12.70;99.90;;;;;;5095771;28;20357;-75
2022/11/14 09:51:04;;;;;;;;;;;12.80;99.90;;;;;;5076826;28;19957;-75
2022/11/14 09:53:31;;;;;;;;;;;12.90;99.90;;;;;;5095453;28;19919;-75
2022/11/14 09:55:57;;;;;;;;;;;12.90;99.90;;;;;;5094815;28;19951;-75
2022/11/14 09:58:22;;;;;;;;;;;12.80;99.90;;;;;;5095276;28;19916;-75
2022/11/14 10:00:55;;;;;;;;;;;12.60;99.90;;;;;;5094971;28;20281;-75
2022/11/14 10:03:23;;;;;;;;;;;12.50;99.90;;;;;;5095233;28;19908;-76
2022/11/14 10:05:52;;;;;;;;;;;12.50;99.90;;;;;;5094773;28;19912;-75
2022/11/14 10:08:36;;;;;;;;;;;12.50;99.90;;;;;;5094977;28;19958;-75
2022/11/14 10:11:19;;;;;;;;;;;12.50;99.90;;;;;;5094781;28;19908;-75
2022/11/14 10:13:45;;;;;;;;;;;12.50;99.90;;;;;;5094760;28;19908;-75
2022/11/14 10:16:22;;;;;;;;;;;12.60;99.90;;;;;;5095237;28;20378;-75
2022/11/14 10:19:08;;;;;;;;;;;12.60;99.90;;;;;;5094649;28;19912;-75
2022/11/14 10:21:37;;;;;;;;;;;12.60;99.90;;;;;;5093971;28;19909;-75
2022/11/14 10:24:17;;;;;;;;;;;12.60;99.90;;;;;;5095054;28;19912;-74
2022/11/14 10:26:58;;;;;;;;;;;12.70;99.90;;;;;;5094505;28;19908;-75
2022/11/14 10:29:42;;;;;;;;;;;12.70;99.90;;;;;;5095088;28;19908;-75
2022/11/14 10:32:13;;;;;;;;;;;12.60;99.90;;;;;;5094658;28;19916;-75
2022/11/14 10:34:47;;;;;;;;;;;12.70;99.90;;;;;;5094379;28;19908;-75
2022/11/14 10:37:42;;;;;;;;;;;12.80;99.90;;;;;;5094650;28;19908;-76
2022/11/14 10:40:18;;;;;;;;;;;12.90;99.90;;;;;;5072405;28;19918;-75
2022/11/14 10:42:46;;;;;;;;;;;13.10;99.90;;;;;;5094433;28;20324;-75
2022/11/14 10:45:28;;;;;;;;;;;13.20;99.90;;;;;;5094118;28;20002;-75
2022/11/14 10:47:57;;;;;;;;;;;13.30;99.90;;;;;;5094163;28;19908;-76
2022/11/14 10:50:31;;;;;;;;;;;13.50;99.90;;;;;;5093998;28;20015;-75
2022/11/14 10:52:59;;;;;;;;;;;13.80;99.90;;;;;;5093658;28;19946;-76
2022/11/14 10:55:25;;;;;;;;;;;14.00;99.90;;;;;;5093985;28;19908;-75
2022/11/14 10:57:53;;;;;;;;;;;14.10;99.90;;;;;;5075514;28;21332;-75
2022/11/14 11:00:19;;;;;;;;;;;14.30;99.90;;;;;;5093940;28;19938;-75
2022/11/14 11:02:46;;;;;;;;;;;14.50;99.90;;;;;;5094501;28;20360;-75
2022/11/14 11:05:14;;;;;;;;;;;14.50;99.90;;;;;;5093770;28;19918;-75
2022/11/14 11:13:14;;;;;;;;;;;14.10;99.90;;;;;;5094430;28;20399;-74
2022/11/14 11:15:40;;;;;;;;;;;14.10;99.90;;;;;;5093742;28;20369;-75
2022/11/14 11:18:25;;;;;;;;;;;14.10;99.90;;;;;;5094140;28;19974;-76
2022/11/14 11:21:01;;;;;;;;;;;14.10;99.90;;;;;;5075229;28;19908;-75
2022/11/14 11:23:27;;;;;;;;;;;14.10;99.90;;;;;;5093955;28;19915;-75
2022/11/14 11:26:04;;;;;;;;;;;14.00;99.90;;;;;;5093590;28;19912;-75
2022/11/14 11:28:31;;;;;;;;;;;13.90;99.90;;;;;;5093957;28;20369;-76
2022/11/14 11:30:58;;;;;;;;;;;13.80;99.90;;;;;;5093925;28;19908;-74
2022/11/14 11:33:25;;;;;;;;;;;13.80;99.90;;;;;;5093635;28;19947;-76
2022/11/14 11:35:52;;;;;;;;;;;13.80;99.90;;;;;;5094116;28;20315;-75
2022/11/14 11:38:18;;;;;;;;;;;13.90;99.90;;;;;;5093581;28;19908;-76
2022/11/14 11:40:46;;;;;;;;;;;14.10;99.90;;;;;;5093588;28;19945;-75
2022/11/14 11:43:12;;;;;;;;;;;14.20;99.90;;;;;;5093934;28;20004;-75
2022/11/14 11:45:38;;;;;;;;;;;14.20;99.90;;;;;;5093997;28;20007;-75
2022/11/14 11:48:13;;;;;;;;;;;14.10;99.90;;;;;;5093480;28;19973;-75
2022/11/14 11:50:39;;;;;;;;;;;14.20;99.90;;;;;;5093300;28;19938;-76
2022/11/14 11:53:23;;;;;;;;;;;14.30;99.90;;;;;;5093988;28;19920;-75
2022/11/14 11:55:51;;;;;;;;;;;14.40;99.90;;;;;;5093704;28;19916;-75
2022/11/14 11:58:19;;;;;;;;;;;14.40;99.90;;;;;;5093370;28;19912;-76
2022/11/14 12:00:45;;;;;;;;;;;14.30;99.90;;;;;;5093342;28;19915;-75
2022/11/14 12:03:12;;;;;;;;;;;14.30;99.90;;;;;;5093592;28;19908;-75
2022/11/14 12:05:46;;;;;;;;;;;14.30;99.90;;;;;;5093216;28;19927;-75
2022/11/14 12:08:35;;;;;;;;;;;14.40;99.90;;;;;;5093296;28;19908;-75
2022/11/14 12:11:01;;;;;;;;;;;14.60;99.90;;;;;;5079818;28;20373;-75
2022/11/14 12:13:45;;;;;;;;;;;14.60;99.90;;;;;;5093203;28;20331;-76
2022/11/14 12:16:20;;;;;;;;;;;14.50;99.90;;;;;;5093426;28;20007;-75
2022/11/14 12:18:48;;;;;;;;;;;14.30;99.90;;;;;;5093172;28;20397;-75
2022/11/14 12:21:36;;;;;;;;;;;14.10;99.90;;;;;;5093197;28;19953;-76
2022/11/14 12:24:05;;;;;;;;;;;14.00;99.90;;;;;;5046105;28;19957;-75
2022/11/14 12:26:41;;;;;;;;;;;14.00;99.90;;;;;;5093669;28;19947;-76
2022/11/14 12:29:09;;;;;;;;;;;14.00;99.90;;;;;;5093427;28;19961;-75
2022/11/14 12:31:36;;;;;;;;;;;14.00;99.90;;;;;;5077613;28;19908;-75
2022/11/14 12:34:34;;;;;;;;;;;14.10;99.90;;;;;;5096281;28;19915;-75
2022/11/14 12:37:06;;;;;;;;;;;14.10;99.90;;;;;;5041059;28;19995;-76
2022/11/14 12:39:32;;;;;;;;;;;14.30;99.90;;;;;;5097205;28;20338;-75
2022/11/14 12:42:02;;;;;;;;;;;14.40;99.90;;;;;;5097080;28;19899;-75
2022/11/14 12:44:27;;;;;;;;;;;14.30;99.90;;;;;;5096354;28;20008;-75
2022/11/14 12:47:12;;;;;;;;;;;14.10;99.90;;;;;;5097025;28;19952;-75
2022/11/14 12:49:55;;;;;;;;;;;13.90;99.90;;;;;;5096479;28;20384;-75
2022/11/14 12:52:39;;;;;;;;;;;13.70;99.90;;;;;;5096284;28;19920;-75
2022/11/14 12:55:23;;;;;;;;;;;13.50;99.90;;;;;;5096522;28;19908;-75
2022/11/14 12:57:51;;;;;;;;;;;13.40;99.90;;;;;;5078028;28;19943;-75
2022/11/14 13:00:17;;;;;;;;;;;13.40;99.90;;;;;;5096202;28;19908;-76
2022/11/14 13:02:42;;;;;;;;;;;13.50;99.90;;;;;;5096686;28;19908;-75
2022/11/14 13:05:26;;;;;;;;;;;13.50;99.90;;;;;;5096042;28;20019;-75
2022/11/14 13:08:03;;;;;;;;;;;13.40;99.90;;;;;;5096567;28;19914;-75
2022/11/14 13:10:30;;;;;;;;;;;13.40;99.90;;;;;;5091212;28;19916;-79
2022/11/14 13:22:07;;;;;;;;;;;13.70;99.90;;;;;;5076017;28;19920;-78
2022/11/14 13:24:51;;;;;;;;;;;13.70;99.90;;;;;;5076276;28;20277;-81
2022/11/14 13:27:26;;;;;;;;;;;13.60;99.90;;;;;;5075506;28;19962;-84
2022/11/14 13:29:52;;;;;;;;;;;13.60;99.90;;;;;;5075377;28;19958;-83
2022/11/14 13:32:36;;;;;;;;;;;13.50;99.90;;;;;;5081857;28;19912;-83
2022/11/14 13:35:09;;;;;;;;;;;13.50;99.90;;;;;;5075857;28;20034;-84
2022/11/14 13:37:43;;;;;;;;;;;13.80;99.90;;;;;;5077443;28;19912;-78
2022/11/14 13:40:16;;;;;;;;;;;13.90;99.90;;;;;;5075205;28;19924;-82
2022/11/14 13:42:52;;;;;;;;;;;13.90;99.90;;;;;;5075460;28;19909;-83
2022/11/14 13:45:17;;;;;;;;;;;13.90;99.90;;;;;;5075584;28;19913;-81
2022/11/14 13:47:57;;;;;;;;;;;14.10;99.90;;;;;;5069895;28;19926;-83
2022/11/14 13:50:29;;;;;;;;;;;14.10;99.90;;;;;;5065538;28;19920;-74
2022/11/14 13:52:55;;;;;;;;;;;14.10;99.90;;;;;;5087700;28;20286;-76
2022/11/14 13:55:32;;;;;;;;;;;14.20;99.90;;;;;;5074756;28;19934;-75
2022/11/14 13:58:33;;;;;;;;;;;14.30;99.90;;;;;;5094301;28;19916;-84
2022/11/14 14:01:07;;;;;;;;;;;14.40;99.90;;;;;;4977896;28;19928;-75
2022/11/14 14:03:53;;;;;;;;;;;14.30;99.90;;;;;;5065351;28;19958;-74
2022/11/14 14:06:27;;;;;;;;;;;14.30;99.90;;;;;;5090581;28;20019;-75
2022/11/14 14:08:53;;;;;;;;;;;14.20;99.90;;;;;;5084261;28;19912;-78
2022/11/14 14:11:34;;;;;;;;;;;14.10;99.90;;;;;;5074200;28;20289;-80
2022/11/14 14:13:59;;;;;;;;;;;14.10;99.90;;;;;;5074871;28;19932;-79
2022/11/14 14:16:43;;;;;;;;;;;14.00;99.90;;;;;;5074753;28;20346;-76
2022/11/14 14:19:09;;;;;;;;;;;14.00;99.90;;;;;;5074805;28;19913;-75
2022/11/14 14:21:53;;;;;;;;;;;14.00;99.90;;;;;;5092356;28;19915;-74
2022/11/14 14:24:21;;;;;;;;;;;14.00;99.90;;;;;;5074460;28;20408;-75
2022/11/14 14:26:59;;;;;;;;;;;13.90;99.90;;;;;;5093506;28;19919;-75
2022/11/14 14:29:31;;;;;;;;;;;13.70;99.90;;;;;;5066285;28;19919;-75
2022/11/14 14:32:13;;;;;;;;;;;13.70;99.90;;;;;;5073509;28;19912;-73
2022/11/14 14:34:40;;;;;;;;;;;13.80;99.90;;;;;;5074481;28;19956;-73
2022/11/14 14:37:16;;;;;;;;;;;13.70;99.90;;;;;;5074112;28;19915;-78
2022/11/14 14:39:54;;;;;;;;;;;13.80;99.90;;;;;;5056159;28;19908;-80
2022/11/14 14:42:20;;;;;;;;;;;13.80;99.90;;;;;;5079440;28;19916;-78